sensor_id;sensor_type;location;lat;lon;timestamp;P1;durP1;ratioP1;P2;durP2;ratioP2
55346;SDS011;41218;55.700;38.270;2023-08-21T07:11:11;2.45;;;1.70;;
55346;SDS011;41218;55.700;38.270;2023-08-21T07:16:13;2.65;;;1.70;;
55346;SDS011;41218;55.700;38.270;2023-08-21T07:26:14;1.97;;;1.43;;
55346;SDS011;41218;55.700;38.270;2023-08-21T07:36:15;2.73;;;1.80;;
55346;SDS011;41218;55.700;38.270;2023-08-21T07:41:19;1.98;;;1.50;;
55346;SDS011;41218;55.700;38.270;2023-08-21T07:51:20;4.37;;;1.80;;
55346;SDS011;41218;55.700;38.270;2023-08-21T08:01:21;2.20;;;1.70;;
55346;SDS011;41218;55.700;38.270;2023-08-21T08:11:23;1.95;;;1.50;;
55346;SDS011;41218;55.700;38.270;2023-08-21T08:16:24;1.70;;;1.40;;
55346;SDS011;41218;55.700;38.270;2023-08-21T08:26:25;2.23;;;1.67;;
55346;SDS011;41218;55.700;38.270;2023-08-21T08:36:27;2.10;;;1.52;;
55346;SDS011;41218;55.700;38.270;2023-08-21T08:46:37;4.75;;;2.53;;
55346;SDS011;41218;55.700;38.270;2023-08-21T08:51:38;6.55;;;3.55;;
55346;SDS011;41218;55.700;38.270;2023-08-21T08:56:43;7.32;;;4.35;;
55346;SDS011;41218;55.700;38.270;2023-08-21T09:01:43;15.27;;;7.22;;
55346;SDS011;41218;55.700;38.270;2023-08-21T09:06:44;16.05;;;7.65;;
55346;SDS011;41218;55.700;38.270;2023-08-21T09:16:59;13.35;;;6.13;;
55346;SDS011;41218;55.700;38.270;2023-08-21T09:22:07;10.70;;;6.05;;
55346;SDS011;41218;55.700;38.270;2023-08-21T09:27:13;10.60;;;4.80;;
55346;SDS011;41218;55.700;38.270;2023-08-21T09:32:15;8.18;;;4.35;;
55346;SDS011;41218;55.700;38.270;2023-08-21T09:37:16;5.00;;;3.38;;
55346;SDS011;41218;55.700;38.270;2023-08-21T09:42:17;3.47;;;2.45;;
55346;SDS011;41218;55.700;38.270;2023-08-21T09:47:18;3.38;;;2.17;;
55346;SDS011;41218;55.700;38.270;2023-08-21T09:52:20;6.03;;;3.30;;
55346;SDS011;41218;55.700;38.270;2023-08-21T09:57:22;5.53;;;3.63;;
55346;SDS011;41218;55.700;38.270;2023-08-21T10:02:23;8.57;;;3.53;;
55346;SDS011;41218;55.700;38.270;2023-08-21T10:07:26;5.40;;;2.97;;
55346;SDS011;41218;55.700;38.270;2023-08-21T10:12:28;4.90;;;3.33;;
55346;SDS011;41218;55.700;38.270;2023-08-21T10:17:29;4.32;;;2.92;;
55346;SDS011;41218;55.700;38.270;2023-08-21T10:22:42;5.90;;;3.78;;
55346;SDS011;41218;55.700;38.270;2023-08-21T10:27:43;9.98;;;4.45;;
55346;SDS011;41218;55.700;38.270;2023-08-21T10:32:49;7.40;;;4.00;;
55346;SDS011;41218;55.700;38.270;2023-08-21T10:38:08;5.80;;;3.60;;
55346;SDS011;41218;55.700;38.270;2023-08-21T10:48:45;4.20;;;3.00;;
55346;SDS011;41218;55.700;38.270;2023-08-21T10:53:46;5.22;;;3.28;;
55346;SDS011;41218;55.700;38.270;2023-08-21T10:58:46;5.03;;;3.58;;
55346;SDS011;41218;55.700;38.270;2023-08-21T11:03:49;6.28;;;3.85;;
55346;SDS011;41218;55.700;38.270;2023-08-21T11:08:50;5.43;;;3.75;;
55346;SDS011;41218;55.700;38.270;2023-08-21T11:13:54;7.18;;;3.38;;
55346;SDS011;41218;55.700;38.270;2023-08-21T11:18:55;6.57;;;3.80;;
55346;SDS011;41218;55.700;38.270;2023-08-21T11:23:55;6.78;;;3.60;;
55346;SDS011;41218;55.700;38.270;2023-08-21T11:28:56;4.75;;;3.10;;
55346;SDS011;41218;55.700;38.270;2023-08-21T11:34:01;5.40;;;2.90;;
55346;SDS011;41218;55.700;38.270;2023-08-21T11:39:02;3.83;;;2.50;;
55346;SDS011;41218;55.700;38.270;2023-08-21T11:44:07;4.32;;;2.70;;
55346;SDS011;41218;55.700;38.270;2023-08-21T11:49:09;3.80;;;2.65;;
55346;SDS011;41218;55.700;38.270;2023-08-21T11:54:09;4.32;;;2.90;;
55346;SDS011;41218;55.700;38.270;2023-08-21T11:59:10;5.38;;;2.55;;
55346;SDS011;41218;55.700;38.270;2023-08-21T12:04:15;4.30;;;2.85;;
55346;SDS011;41218;55.700;38.270;2023-08-21T12:09:16;4.53;;;3.60;;
55346;SDS011;41218;55.700;38.270;2023-08-21T12:14:19;3.67;;;2.60;;
55346;SDS011;41218;55.700;38.270;2023-08-21T12:19:20;6.70;;;3.58;;
55346;SDS011;41218;55.700;38.270;2023-08-21T12:24:22;4.40;;;3.17;;
55346;SDS011;41218;55.700;38.270;2023-08-21T12:29:22;5.80;;;4.35;;
55346;SDS011;41218;55.700;38.270;2023-08-21T12:34:23;5.03;;;3.78;;
55346;SDS011;41218;55.700;38.270;2023-08-21T12:39:24;5.68;;;3.58;;
55346;SDS011;41218;55.700;38.270;2023-08-21T12:44:24;11.05;;;7.82;;
55346;SDS011;41218;55.700;38.270;2023-08-21T12:49:25;6.57;;;3.75;;
55346;SDS011;41218;55.700;38.270;2023-08-21T12:54:25;14.02;;;8.63;;
55346;SDS011;41218;55.700;38.270;2023-08-21T12:59:26;4.45;;;3.15;;
55346;SDS011;41218;55.700;38.270;2023-08-21T13:04:27;11.73;;;5.65;;
55346;SDS011;41218;55.700;38.270;2023-08-21T13:09:30;16.75;;;9.75;;
55346;SDS011;41218;55.700;38.270;2023-08-21T13:14:32;5.32;;;3.05;;
55346;SDS011;41218;55.700;38.270;2023-08-21T13:19:32;8.55;;;5.50;;
55346;SDS011;41218;55.700;38.270;2023-08-21T13:24:33;3.72;;;2.72;;
55346;SDS011;41218;55.700;38.270;2023-08-21T13:29:33;4.25;;;2.90;;
55346;SDS011;41218;55.700;38.270;2023-08-21T13:34:34;4.25;;;2.78;;
55346;SDS011;41218;55.700;38.270;2023-08-21T13:39:35;3.03;;;2.20;;
55346;SDS011;41218;55.700;38.270;2023-08-21T13:44:35;3.97;;;2.45;;
55346;SDS011;41218;55.700;38.270;2023-08-21T13:49:36;7.22;;;3.50;;
55346;SDS011;41218;55.700;38.270;2023-08-21T13:54:37;4.05;;;2.40;;
55346;SDS011;41218;55.700;38.270;2023-08-21T13:59:41;2.60;;;1.77;;
55346;SDS011;41218;55.700;38.270;2023-08-21T14:04:42;8.70;;;4.38;;
55346;SDS011;41218;55.700;38.270;2023-08-21T14:09:42;49.30;;;31.77;;
55346;SDS011;41218;55.700;38.270;2023-08-21T14:14:43;18.77;;;13.35;;
55346;SDS011;41218;55.700;38.270;2023-08-21T14:19:43;6.03;;;3.85;;
55346;SDS011;41218;55.700;38.270;2023-08-21T14:24:44;4.47;;;2.58;;
55346;SDS011;41218;55.700;38.270;2023-08-21T14:29:44;4.30;;;2.63;;
55346;SDS011;41218;55.700;38.270;2023-08-21T14:34:45;16.08;;;11.85;;
55346;SDS011;41218;55.700;38.270;2023-08-21T14:39:47;9.00;;;7.40;;
55346;SDS011;41218;55.700;38.270;2023-08-21T14:44:47;12.25;;;9.55;;
55346;SDS011;41218;55.700;38.270;2023-08-21T14:49:51;20.63;;;13.32;;
55346;SDS011;41218;55.700;38.270;2023-08-21T14:54:52;12.85;;;8.50;;
55346;SDS011;41218;55.700;38.270;2023-08-21T14:59:53;5.47;;;4.00;;
55346;SDS011;41218;55.700;38.270;2023-08-21T15:04:55;21.08;;;13.55;;
55346;SDS011;41218;55.700;38.270;2023-08-21T15:09:56;13.93;;;8.60;;
55346;SDS011;41218;55.700;38.270;2023-08-21T15:14:56;18.52;;;9.77;;
55346;SDS011;41218;55.700;38.270;2023-08-21T15:19:57;12.88;;;6.35;;
55346;SDS011;41218;55.700;38.270;2023-08-21T15:24:57;6.10;;;4.00;;
55346;SDS011;41218;55.700;38.270;2023-08-21T15:29:59;6.60;;;4.80;;
55346;SDS011;41218;55.700;38.270;2023-08-21T15:35:02;4.25;;;3.00;;
55346;SDS011;41218;55.700;38.270;2023-08-21T15:40:05;5.75;;;4.65;;
55346;SDS011;41218;55.700;38.270;2023-08-21T15:45:06;4.25;;;3.20;;
55346;SDS011;41218;55.700;38.270;2023-08-21T15:50:07;18.00;;;11.82;;
55346;SDS011;41218;55.700;38.270;2023-08-21T15:55:08;17.70;;;11.38;;
55346;SDS011;41218;55.700;38.270;2023-08-21T16:00:09;31.67;;;20.10;;
55346;SDS011;41218;55.700;38.270;2023-08-21T16:05:11;32.20;;;17.63;;
55346;SDS011;41218;55.700;38.270;2023-08-21T16:10:11;18.80;;;7.97;;
55346;SDS011;41218;55.700;38.270;2023-08-21T16:15:13;14.38;;;7.28;;
55346;SDS011;41218;55.700;38.270;2023-08-21T16:20:13;38.95;;;18.75;;
55346;SDS011;41218;55.700;38.270;2023-08-21T16:25:15;47.65;;;23.75;;
55346;SDS011;41218;55.700;38.270;2023-08-21T16:30:16;57.05;;;27.60;;
55346;SDS011;41218;55.700;38.270;2023-08-21T16:35:17;22.13;;;12.27;;
55346;SDS011;41218;55.700;38.270;2023-08-21T16:40:17;18.63;;;11.15;;
55346;SDS011;41218;55.700;38.270;2023-08-21T16:45:18;19.35;;;12.90;;
55346;SDS011;41218;55.700;38.270;2023-08-21T16:50:21;42.55;;;26.52;;
55346;SDS011;41218;55.700;38.270;2023-08-21T16:55:22;55.80;;;33.45;;
55346;SDS011;41218;55.700;38.270;2023-08-21T17:00:22;135.13;;;73.82;;
55346;SDS011;41218;55.700;38.270;2023-08-21T17:05:23;116.72;;;61.70;;
55346;SDS011;41218;55.700;38.270;2023-08-21T17:10:24;64.72;;;37.67;;
55346;SDS011;41218;55.700;38.270;2023-08-21T17:15:24;21.17;;;12.38;;
55346;SDS011;41218;55.700;38.270;2023-08-21T17:20:25;15.40;;;9.73;;
55346;SDS011;41218;55.700;38.270;2023-08-21T17:25:26;33.20;;;19.05;;
55346;SDS011;41218;55.700;38.270;2023-08-21T17:30:27;70.80;;;31.55;;
55346;SDS011;41218;55.700;38.270;2023-08-21T17:35:30;52.70;;;23.50;;
55346;SDS011;41218;55.700;38.270;2023-08-21T17:40:33;32.75;;;15.25;;
55346;SDS011;41218;55.700;38.270;2023-08-21T17:50:34;20.17;;;10.60;;
55346;SDS011;41218;55.700;38.270;2023-08-21T18:00:35;42.33;;;18.97;;
55346;SDS011;41218;55.700;38.270;2023-08-21T18:10:36;16.03;;;8.17;;
55346;SDS011;41218;55.700;38.270;2023-08-21T18:20:51;14.97;;;7.40;;
55346;SDS011;41218;55.700;38.270;2023-08-21T18:25:56;12.13;;;7.10;;
55346;SDS011;41218;55.700;38.270;2023-08-21T18:30:58;20.65;;;8.65;;
55346;SDS011;41218;55.700;38.270;2023-08-21T18:36:00;15.13;;;9.45;;
55346;SDS011;41218;55.700;38.270;2023-08-21T18:46:02;12.03;;;6.90;;
55346;SDS011;41218;55.700;38.270;2023-08-21T18:56:03;10.30;;;6.47;;
55346;SDS011;41218;55.700;38.270;2023-08-21T19:01:05;13.02;;;7.35;;
55346;SDS011;41218;55.700;38.270;2023-08-21T19:11:07;16.83;;;7.83;;
55346;SDS011;41218;55.700;38.270;2023-08-21T19:16:08;16.38;;;8.15;;
55346;SDS011;41218;55.700;38.270;2023-08-21T19:26:10;13.77;;;7.85;;
55346;SDS011;41218;55.700;38.270;2023-08-21T19:31:11;14.40;;;8.35;;
55346;SDS011;41218;55.700;38.270;2023-08-21T19:36:12;14.93;;;8.10;;
55346;SDS011;41218;55.700;38.270;2023-08-21T19:41:13;14.35;;;8.25;;
55346;SDS011;41218;55.700;38.270;2023-08-21T19:46:14;14.15;;;8.25;;
55346;SDS011;41218;55.700;38.270;2023-08-21T19:51:14;15.15;;;8.07;;
55346;SDS011;41218;55.700;38.270;2023-08-21T19:56:15;14.93;;;8.35;;
55346;SDS011;41218;55.700;38.270;2023-08-21T20:01:15;15.02;;;8.32;;
55346;SDS011;41218;55.700;38.270;2023-08-21T20:06:16;16.15;;;8.02;;
55346;SDS011;41218;55.700;38.270;2023-08-21T20:11:16;14.75;;;7.82;;
55346;SDS011;41218;55.700;38.270;2023-08-21T20:21:18;14.73;;;8.20;;
55346;SDS011;41218;55.700;38.270;2023-08-21T20:26:20;15.25;;;8.05;;
55346;SDS011;41218;55.700;38.270;2023-08-21T20:31:24;17.10;;;8.20;;
55346;SDS011;41218;55.700;38.270;2023-08-21T20:36:26;13.88;;;8.15;;
55346;SDS011;41218;55.700;38.270;2023-08-21T20:41:26;14.45;;;7.95;;
55346;SDS011;41218;55.700;38.270;2023-08-21T20:46:27;16.10;;;8.73;;
55346;SDS011;41218;55.700;38.270;2023-08-21T20:51:27;14.90;;;8.13;;
55346;SDS011;41218;55.700;38.270;2023-08-21T20:56:28;13.95;;;7.93;;
55346;SDS011;41218;55.700;38.270;2023-08-21T21:01:29;14.20;;;7.90;;
55346;SDS011;41218;55.700;38.270;2023-08-21T21:06:29;15.25;;;8.18;;
55346;SDS011;41218;55.700;38.270;2023-08-21T21:11:30;15.88;;;8.27;;
55346;SDS011;41218;55.700;38.270;2023-08-21T21:16:30;13.60;;;8.20;;
55346;SDS011;41218;55.700;38.270;2023-08-21T21:21:31;16.60;;;7.97;;
55346;SDS011;41218;55.700;38.270;2023-08-21T21:26:32;14.30;;;7.57;;
55346;SDS011;41218;55.700;38.270;2023-08-21T21:31:36;16.65;;;8.70;;
55346;SDS011;41218;55.700;38.270;2023-08-21T21:36:36;16.67;;;8.05;;
55346;SDS011;41218;55.700;38.270;2023-08-21T21:41:57;14.47;;;8.00;;
55346;SDS011;41218;55.700;38.270;2023-08-21T21:46:58;13.00;;;7.30;;
55346;SDS011;41218;55.700;38.270;2023-08-21T21:51:58;13.80;;;7.33;;
55346;SDS011;41218;55.700;38.270;2023-08-21T21:56:59;13.77;;;7.73;;
55346;SDS011;41218;55.700;38.270;2023-08-21T22:01:59;13.37;;;7.33;;
55346;SDS011;41218;55.700;38.270;2023-08-21T22:07:00;13.32;;;7.22;;
55346;SDS011;41218;55.700;38.270;2023-08-21T22:12:00;14.27;;;7.22;;
55346;SDS011;41218;55.700;38.270;2023-08-21T22:17:01;16.70;;;7.93;;
55346;SDS011;41218;55.700;38.270;2023-08-21T22:22:01;15.10;;;7.20;;
55346;SDS011;41218;55.700;38.270;2023-08-21T22:32:03;12.23;;;6.43;;
55346;SDS011;41218;55.700;38.270;2023-08-21T22:37:05;15.02;;;7.18;;
55346;SDS011;41218;55.700;38.270;2023-08-21T22:42:05;12.02;;;6.80;;
55346;SDS011;41218;55.700;38.270;2023-08-21T22:47:09;13.93;;;6.60;;
55346;SDS011;41218;55.700;38.270;2023-08-21T22:52:15;13.93;;;7.03;;
55346;SDS011;41218;55.700;38.270;2023-08-21T22:57:15;12.85;;;6.65;;
55346;SDS011;41218;55.700;38.270;2023-08-21T23:02:16;11.00;;;6.30;;
55346;SDS011;41218;55.700;38.270;2023-08-21T23:07:16;14.60;;;6.82;;
55346;SDS011;41218;55.700;38.270;2023-08-21T23:12:17;15.63;;;6.33;;
55346;SDS011;41218;55.700;38.270;2023-08-21T23:17:17;13.57;;;6.87;;
55346;SDS011;41218;55.700;38.270;2023-08-21T23:22:18;12.23;;;6.80;;
55346;SDS011;41218;55.700;38.270;2023-08-21T23:27:19;13.43;;;7.03;;
55346;SDS011;41218;55.700;38.270;2023-08-21T23:32:19;10.43;;;6.07;;
55346;SDS011;41218;55.700;38.270;2023-08-21T23:37:21;11.70;;;5.93;;
55346;SDS011;41218;55.700;38.270;2023-08-21T23:42:21;14.02;;;6.25;;
55346;SDS011;41218;55.700;38.270;2023-08-21T23:47:22;15.15;;;6.50;;
55346;SDS011;41218;55.700;38.270;2023-08-21T23:52:24;10.55;;;6.40;;
55346;SDS011;41218;55.700;38.270;2023-08-21T23:57:24;11.60;;;6.28;;
